sensor_id;sensor_type;location;lat;lon;timestamp;P1;durP1;ratioP1;P2;durP2;ratioP2
22476;SDS011;65006;51.698;-0.292;2023-11-21T00:00:07;8.88;;;3.97;;
22476;SDS011;65006;51.698;-0.292;2023-11-21T00:02:37;5.88;;;4.20;;
22476;SDS011;65006;51.698;-0.292;2023-11-21T00:05:05;5.57;;;3.78;;
22476;SDS011;65006;51.698;-0.292;2023-11-21T00:07:36;6.28;;;3.80;;
22476;SDS011;65006;51.698;-0.292;2023-11-21T00:10:03;9.95;;;4.68;;
22476;SDS011;65006;51.698;-0.292;2023-11-21T00:12:30;7.55;;;4.40;;
22476;SDS011;65006;51.698;-0.292;2023-11-21T00:14:57;9.77;;;4.28;;
22476;SDS011;65006;51.698;-0.292;2023-11-21T00:17:24;6.97;;;4.00;;
22476;SDS011;65006;51.698;-0.292;2023-11-21T00:19:51;7.63;;;4.65;;
22476;SDS011;65006;51.698;-0.292;2023-11-21T00:22:18;11.75;;;4.55;;
22476;SDS011;65006;51.698;-0.292;2023-11-21T00:24:46;10.45;;;4.30;;
22476;SDS011;65006;51.698;-0.292;2023-11-21T00:27:13;7.20;;;4.30;;
22476;SDS011;65006;51.698;-0.292;2023-11-21T00:29:39;7.60;;;3.97;;
22476;SDS011;65006;51.698;-0.292;2023-11-21T00:32:06;6.93;;;4.40;;
22476;SDS011;65006;51.698;-0.292;2023-11-21T00:34:32;8.25;;;4.50;;
22476;SDS011;65006;51.698;-0.292;2023-11-21T00:36:59;9.07;;;5.30;;
22476;SDS011;65006;51.698;-0.292;2023-11-21T00:39:26;9.52;;;4.93;;
22476;SDS011;65006;51.698;-0.292;2023-11-21T00:41:52;10.57;;;4.97;;
22476;SDS011;65006;51.698;-0.292;2023-11-21T00:44:19;9.05;;;4.80;;
22476;SDS011;65006;51.698;-0.292;2023-11-21T00:46:46;9.77;;;5.05;;
22476;SDS011;65006;51.698;-0.292;2023-11-21T00:49:12;10.30;;;5.40;;
22476;SDS011;65006;51.698;-0.292;2023-11-21T00:51:38;7.85;;;5.10;;
22476;SDS011;65006;51.698;-0.292;2023-11-21T00:54:04;10.05;;;5.32;;
22476;SDS011;65006;51.698;-0.292;2023-11-21T00:56:31;10.73;;;5.30;;
22476;SDS011;65006;51.698;-0.292;2023-11-21T00:58:59;10.02;;;4.90;;
22476;SDS011;65006;51.698;-0.292;2023-11-21T01:01:29;8.20;;;5.07;;
22476;SDS011;65006;51.698;-0.292;2023-11-21T01:03:55;10.60;;;4.30;;
22476;SDS011;65006;51.698;-0.292;2023-11-21T01:06:22;6.47;;;4.32;;
22476;SDS011;65006;51.698;-0.292;2023-11-21T01:08:48;9.65;;;4.40;;
22476;SDS011;65006;51.698;-0.292;2023-11-21T01:11:14;5.97;;;3.72;;
22476;SDS011;65006;51.698;-0.292;2023-11-21T01:13:41;8.02;;;3.92;;
22476;SDS011;65006;51.698;-0.292;2023-11-21T01:16:09;5.90;;;3.53;;
22476;SDS011;65006;51.698;-0.292;2023-11-21T01:18:35;7.93;;;3.75;;
22476;SDS011;65006;51.698;-0.292;2023-11-21T01:21:01;6.45;;;3.95;;
22476;SDS011;65006;51.698;-0.292;2023-11-21T01:23:27;7.85;;;3.78;;
22476;SDS011;65006;51.698;-0.292;2023-11-21T01:28:20;7.80;;;3.50;;
22476;SDS011;65006;51.698;-0.292;2023-11-21T01:33:15;9.70;;;3.10;;
22476;SDS011;65006;51.698;-0.292;2023-11-21T01:35:42;6.03;;;3.60;;
22476;SDS011;65006;51.698;-0.292;2023-11-21T01:38:08;5.50;;;3.25;;
22476;SDS011;65006;51.698;-0.292;2023-11-21T01:40:34;4.68;;;3.38;;
22476;SDS011;65006;51.698;-0.292;2023-11-21T01:43:02;6.80;;;3.17;;
22476;SDS011;65006;51.698;-0.292;2023-11-21T01:45:29;4.43;;;3.00;;
22476;SDS011;65006;51.698;-0.292;2023-11-21T01:47:59;5.45;;;2.75;;
22476;SDS011;65006;51.698;-0.292;2023-11-21T01:50:26;3.53;;;2.33;;
22476;SDS011;65006;51.698;-0.292;2023-11-21T01:52:53;4.50;;;2.35;;
22476;SDS011;65006;51.698;-0.292;2023-11-21T01:55:20;3.80;;;2.10;;
22476;SDS011;65006;51.698;-0.292;2023-11-21T01:57:47;4.90;;;2.42;;
22476;SDS011;65006;51.698;-0.292;2023-11-21T02:00:13;9.13;;;3.03;;
22476;SDS011;65006;51.698;-0.292;2023-11-21T02:02:43;2.95;;;1.85;;
22476;SDS011;65006;51.698;-0.292;2023-11-21T02:05:12;4.25;;;1.92;;
22476;SDS011;65006;51.698;-0.292;2023-11-21T02:07:40;2.70;;;1.98;;
22476;SDS011;65006;51.698;-0.292;2023-11-21T02:10:08;3.10;;;1.70;;
22476;SDS011;65006;51.698;-0.292;2023-11-21T02:15:01;2.92;;;1.45;;
22476;SDS011;65006;51.698;-0.292;2023-11-21T02:17:28;1.98;;;1.10;;
22476;SDS011;65006;51.698;-0.292;2023-11-21T02:19:54;1.85;;;1.40;;
22476;SDS011;65006;51.698;-0.292;2023-11-21T02:22:21;2.20;;;1.33;;
22476;SDS011;65006;51.698;-0.292;2023-11-21T02:24:51;4.18;;;1.55;;
22476;SDS011;65006;51.698;-0.292;2023-11-21T02:27:17;6.32;;;1.40;;
22476;SDS011;65006;51.698;-0.292;2023-11-21T02:29:46;2.28;;;1.58;;
22476;SDS011;65006;51.698;-0.292;2023-11-21T02:32:13;3.08;;;1.75;;
22476;SDS011;65006;51.698;-0.292;2023-11-21T02:34:43;4.03;;;1.63;;
22476;SDS011;65006;51.698;-0.292;2023-11-21T02:37:09;4.00;;;1.90;;
22476;SDS011;65006;51.698;-0.292;2023-11-21T02:39:35;3.05;;;2.00;;
22476;SDS011;65006;51.698;-0.292;2023-11-21T02:42:02;2.67;;;1.70;;
22476;SDS011;65006;51.698;-0.292;2023-11-21T02:44:29;3.35;;;1.45;;
22476;SDS011;65006;51.698;-0.292;2023-11-21T02:46:55;2.95;;;1.92;;
22476;SDS011;65006;51.698;-0.292;2023-11-21T02:49:22;2.80;;;2.00;;
22476;SDS011;65006;51.698;-0.292;2023-11-21T02:51:49;5.10;;;2.10;;
22476;SDS011;65006;51.698;-0.292;2023-11-21T02:54:17;2.65;;;1.60;;
22476;SDS011;65006;51.698;-0.292;2023-11-21T02:56:43;4.03;;;2.05;;
22476;SDS011;65006;51.698;-0.292;2023-11-21T02:59:10;2.72;;;1.73;;
22476;SDS011;65006;51.698;-0.292;2023-11-21T03:01:36;4.25;;;1.90;;
22476;SDS011;65006;51.698;-0.292;2023-11-21T03:04:02;1.90;;;1.23;;
22476;SDS011;65006;51.698;-0.292;2023-11-21T03:06:28;3.83;;;1.65;;
22476;SDS011;65006;51.698;-0.292;2023-11-21T03:08:54;4.10;;;2.22;;
22476;SDS011;65006;51.698;-0.292;2023-11-21T03:11:21;4.95;;;1.77;;
22476;SDS011;65006;51.698;-0.292;2023-11-21T03:13:47;4.70;;;2.08;;
22476;SDS011;65006;51.698;-0.292;2023-11-21T03:16:15;3.22;;;1.70;;
22476;SDS011;65006;51.698;-0.292;2023-11-21T03:18:41;3.17;;;1.83;;
22476;SDS011;65006;51.698;-0.292;2023-11-21T03:21:07;2.05;;;1.63;;
22476;SDS011;65006;51.698;-0.292;2023-11-21T03:23:34;2.53;;;1.33;;
22476;SDS011;65006;51.698;-0.292;2023-11-21T03:26:02;1.95;;;1.20;;
22476;SDS011;65006;51.698;-0.292;2023-11-21T03:28:28;5.68;;;1.38;;
22476;SDS011;65006;51.698;-0.292;2023-11-21T03:30:55;12.82;;;1.35;;
22476;SDS011;65006;51.698;-0.292;2023-11-21T03:33:21;1.65;;;0.90;;
22476;SDS011;65006;51.698;-0.292;2023-11-21T03:35:47;2.38;;;1.15;;
22476;SDS011;65006;51.698;-0.292;2023-11-21T03:43:08;1.83;;;0.70;;
22476;SDS011;65006;51.698;-0.292;2023-11-21T03:45:34;1.35;;;0.90;;
22476;SDS011;65006;51.698;-0.292;2023-11-21T03:48:00;1.88;;;0.90;;
22476;SDS011;65006;51.698;-0.292;2023-11-21T03:50:30;1.00;;;0.68;;
22476;SDS011;65006;51.698;-0.292;2023-11-21T03:53:04;0.90;;;0.70;;
22476;SDS011;65006;51.698;-0.292;2023-11-21T03:55:30;1.23;;;0.93;;
22476;SDS011;65006;51.698;-0.292;2023-11-21T03:57:57;0.68;;;0.65;;
22476;SDS011;65006;51.698;-0.292;2023-11-21T04:02:49;2.75;;;0.85;;
22476;SDS011;65006;51.698;-0.292;2023-11-21T04:05:16;4.38;;;0.80;;
22476;SDS011;65006;51.698;-0.292;2023-11-21T04:07:42;2.13;;;1.00;;
22476;SDS011;65006;51.698;-0.292;2023-11-21T04:10:09;2.60;;;0.95;;
22476;SDS011;65006;51.698;-0.292;2023-11-21T04:12:38;1.65;;;1.20;;
22476;SDS011;65006;51.698;-0.292;2023-11-21T04:15:05;3.28;;;1.20;;
22476;SDS011;65006;51.698;-0.292;2023-11-21T04:17:35;3.25;;;1.10;;
22476;SDS011;65006;51.698;-0.292;2023-11-21T04:20:02;1.60;;;1.23;;
22476;SDS011;65006;51.698;-0.292;2023-11-21T04:22:28;2.25;;;1.05;;
22476;SDS011;65006;51.698;-0.292;2023-11-21T04:24:54;1.55;;;1.10;;
22476;SDS011;65006;51.698;-0.292;2023-11-21T04:27:21;5.22;;;1.52;;
22476;SDS011;65006;51.698;-0.292;2023-11-21T04:29:48;1.98;;;1.42;;
22476;SDS011;65006;51.698;-0.292;2023-11-21T04:32:14;3.65;;;1.70;;
22476;SDS011;65006;51.698;-0.292;2023-11-21T04:34:40;3.10;;;1.50;;
22476;SDS011;65006;51.698;-0.292;2023-11-21T04:37:07;3.10;;;1.63;;
22476;SDS011;65006;51.698;-0.292;2023-11-21T04:39:34;6.18;;;1.52;;
22476;SDS011;65006;51.698;-0.292;2023-11-21T04:42:00;2.55;;;1.63;;
22476;SDS011;65006;51.698;-0.292;2023-11-21T04:44:26;3.90;;;1.55;;
22476;SDS011;65006;51.698;-0.292;2023-11-21T04:46:52;2.90;;;1.40;;
22476;SDS011;65006;51.698;-0.292;2023-11-21T04:49:18;2.55;;;1.60;;
22476;SDS011;65006;51.698;-0.292;2023-11-21T04:51:45;1.73;;;1.50;;
22476;SDS011;65006;51.698;-0.292;2023-11-21T04:54:11;2.30;;;1.35;;
22476;SDS011;65006;51.698;-0.292;2023-11-21T04:56:37;2.83;;;1.17;;
22476;SDS011;65006;51.698;-0.292;2023-11-21T04:59:03;2.88;;;1.42;;
22476;SDS011;65006;51.698;-0.292;2023-11-21T05:01:29;4.50;;;1.55;;
22476;SDS011;65006;51.698;-0.292;2023-11-21T05:03:55;4.30;;;1.55;;
22476;SDS011;65006;51.698;-0.292;2023-11-21T05:06:22;2.28;;;1.20;;
22476;SDS011;65006;51.698;-0.292;2023-11-21T05:08:49;5.30;;;1.40;;
22476;SDS011;65006;51.698;-0.292;2023-11-21T05:11:27;5.22;;;1.45;;
22476;SDS011;65006;51.698;-0.292;2023-11-21T05:13:54;3.28;;;1.50;;
22476;SDS011;65006;51.698;-0.292;2023-11-21T05:16:22;4.40;;;1.33;;
22476;SDS011;65006;51.698;-0.292;2023-11-21T05:18:49;5.85;;;1.30;;
22476;SDS011;65006;51.698;-0.292;2023-11-21T05:21:15;6.47;;;1.70;;
22476;SDS011;65006;51.698;-0.292;2023-11-21T05:23:41;2.63;;;1.42;;
22476;SDS011;65006;51.698;-0.292;2023-11-21T05:26:08;5.88;;;1.48;;
22476;SDS011;65006;51.698;-0.292;2023-11-21T05:28:34;1.70;;;1.30;;
22476;SDS011;65006;51.698;-0.292;2023-11-21T05:31:01;2.50;;;1.33;;
22476;SDS011;65006;51.698;-0.292;2023-11-21T05:33:27;4.35;;;1.60;;
22476;SDS011;65006;51.698;-0.292;2023-11-21T05:35:54;1.73;;;1.30;;
22476;SDS011;65006;51.698;-0.292;2023-11-21T05:38:20;3.03;;;0.90;;
22476;SDS011;65006;51.698;-0.292;2023-11-21T05:40:46;2.45;;;1.55;;
22476;SDS011;65006;51.698;-0.292;2023-11-21T05:43:13;2.53;;;1.13;;
22476;SDS011;65006;51.698;-0.292;2023-11-21T05:45:40;2.20;;;1.00;;
22476;SDS011;65006;51.698;-0.292;2023-11-21T05:48:06;3.05;;;1.10;;
22476;SDS011;65006;51.698;-0.292;2023-11-21T05:50:32;0.90;;;0.90;;
22476;SDS011;65006;51.698;-0.292;2023-11-21T05:52:58;4.63;;;1.23;;
22476;SDS011;65006;51.698;-0.292;2023-11-21T05:55:25;2.97;;;1.05;;
22476;SDS011;65006;51.698;-0.292;2023-11-21T05:57:52;2.80;;;1.13;;
22476;SDS011;65006;51.698;-0.292;2023-11-21T06:00:18;4.80;;;1.08;;
22476;SDS011;65006;51.698;-0.292;2023-11-21T06:02:49;2.42;;;1.10;;
22476;SDS011;65006;51.698;-0.292;2023-11-21T06:05:17;4.70;;;1.42;;
22476;SDS011;65006;51.698;-0.292;2023-11-21T06:07:45;2.65;;;1.20;;
22476;SDS011;65006;51.698;-0.292;2023-11-21T06:10:11;4.57;;;1.40;;
22476;SDS011;65006;51.698;-0.292;2023-11-21T06:12:39;3.72;;;1.30;;
22476;SDS011;65006;51.698;-0.292;2023-11-21T06:15:08;1.85;;;1.45;;
22476;SDS011;65006;51.698;-0.292;2023-11-21T06:17:34;5.40;;;1.58;;
22476;SDS011;65006;51.698;-0.292;2023-11-21T06:20:04;6.70;;;1.00;;
22476;SDS011;65006;51.698;-0.292;2023-11-21T06:22:41;5.40;;;1.00;;
22476;SDS011;65006;51.698;-0.292;2023-11-21T06:25:08;2.67;;;1.00;;
22476;SDS011;65006;51.698;-0.292;2023-11-21T06:27:37;6.10;;;1.52;;
22476;SDS011;65006;51.698;-0.292;2023-11-21T06:30:03;3.05;;;1.10;;
22476;SDS011;65006;51.698;-0.292;2023-11-21T06:32:30;4.00;;;1.10;;
22476;SDS011;65006;51.698;-0.292;2023-11-21T06:34:56;2.35;;;1.50;;
22476;SDS011;65006;51.698;-0.292;2023-11-21T06:37:28;2.50;;;1.58;;
22476;SDS011;65006;51.698;-0.292;2023-11-21T06:39:54;5.03;;;1.50;;
22476;SDS011;65006;51.698;-0.292;2023-11-21T06:42:21;4.50;;;1.38;;
22476;SDS011;65006;51.698;-0.292;2023-11-21T06:47:21;2.55;;;1.42;;
22476;SDS011;65006;51.698;-0.292;2023-11-21T06:49:50;2.20;;;1.48;;
22476;SDS011;65006;51.698;-0.292;2023-11-21T06:52:16;2.30;;;1.40;;
22476;SDS011;65006;51.698;-0.292;2023-11-21T06:54:43;1.67;;;1.35;;
22476;SDS011;65006;51.698;-0.292;2023-11-21T06:57:10;2.72;;;1.42;;
22476;SDS011;65006;51.698;-0.292;2023-11-21T06:59:36;3.25;;;1.45;;
22476;SDS011;65006;51.698;-0.292;2023-11-21T07:02:02;5.28;;;1.60;;
22476;SDS011;65006;51.698;-0.292;2023-11-21T07:04:30;8.60;;;1.98;;
22476;SDS011;65006;51.698;-0.292;2023-11-21T07:06:58;4.28;;;1.30;;
22476;SDS011;65006;51.698;-0.292;2023-11-21T07:09:24;4.85;;;2.00;;
22476;SDS011;65006;51.698;-0.292;2023-11-21T07:11:51;2.35;;;1.00;;
22476;SDS011;65006;51.698;-0.292;2023-11-21T07:14:18;4.65;;;1.40;;
22476;SDS011;65006;51.698;-0.292;2023-11-21T07:16:46;3.53;;;1.30;;
22476;SDS011;65006;51.698;-0.292;2023-11-21T07:19:12;3.15;;;1.30;;
22476;SDS011;65006;51.698;-0.292;2023-11-21T07:21:38;4.07;;;1.60;;
22476;SDS011;65006;51.698;-0.292;2023-11-21T07:24:05;2.80;;;1.10;;
22476;SDS011;65006;51.698;-0.292;2023-11-21T07:26:31;1.63;;;1.08;;
22476;SDS011;65006;51.698;-0.292;2023-11-21T07:28:59;2.53;;;1.10;;
22476;SDS011;65006;51.698;-0.292;2023-11-21T07:31:25;2.65;;;1.20;;
22476;SDS011;65006;51.698;-0.292;2023-11-21T07:33:52;3.05;;;1.35;;
22476;SDS011;65006;51.698;-0.292;2023-11-21T07:36:18;1.23;;;0.70;;
22476;SDS011;65006;51.698;-0.292;2023-11-21T07:38:48;4.25;;;1.20;;
22476;SDS011;65006;51.698;-0.292;2023-11-21T07:41:15;2.50;;;1.10;;
22476;SDS011;65006;51.698;-0.292;2023-11-21T07:43:42;3.13;;;1.15;;
22476;SDS011;65006;51.698;-0.292;2023-11-21T07:46:09;1.83;;;1.02;;
22476;SDS011;65006;51.698;-0.292;2023-11-21T07:48:38;2.10;;;1.00;;
22476;SDS011;65006;51.698;-0.292;2023-11-21T07:51:05;1.70;;;1.00;;
22476;SDS011;65006;51.698;-0.292;2023-11-21T07:53:35;3.45;;;1.13;;
22476;SDS011;65006;51.698;-0.292;2023-11-21T07:56:05;2.05;;;0.90;;
22476;SDS011;65006;51.698;-0.292;2023-11-21T07:58:32;2.22;;;1.00;;
22476;SDS011;65006;51.698;-0.292;2023-11-21T08:00:59;7.05;;;1.00;;
22476;SDS011;65006;51.698;-0.292;2023-11-21T08:03:26;2.28;;;0.70;;
22476;SDS011;65006;51.698;-0.292;2023-11-21T08:08:21;1.02;;;0.75;;
22476;SDS011;65006;51.698;-0.292;2023-11-21T08:10:48;2.00;;;1.00;;
22476;SDS011;65006;51.698;-0.292;2023-11-21T08:13:24;1.08;;;0.60;;
22476;SDS011;65006;51.698;-0.292;2023-11-21T08:15:56;3.78;;;0.93;;
22476;SDS011;65006;51.698;-0.292;2023-11-21T08:18:27;1.30;;;0.75;;
22476;SDS011;65006;51.698;-0.292;2023-11-21T08:20:59;2.35;;;0.65;;
22476;SDS011;65006;51.698;-0.292;2023-11-21T08:23:25;3.25;;;0.70;;
22476;SDS011;65006;51.698;-0.292;2023-11-21T08:25:53;1.17;;;0.85;;
22476;SDS011;65006;51.698;-0.292;2023-11-21T08:28:19;1.48;;;0.80;;
22476;SDS011;65006;51.698;-0.292;2023-11-21T08:30:53;1.73;;;0.93;;
22476;SDS011;65006;51.698;-0.292;2023-11-21T08:33:19;4.65;;;1.20;;
22476;SDS011;65006;51.698;-0.292;2023-11-21T08:35:45;2.63;;;1.30;;
22476;SDS011;65006;51.698;-0.292;2023-11-21T08:38:12;2.20;;;0.82;;
22476;SDS011;65006;51.698;-0.292;2023-11-21T08:40:38;5.10;;;0.98;;
22476;SDS011;65006;51.698;-0.292;2023-11-21T08:43:14;1.33;;;0.82;;
22476;SDS011;65006;51.698;-0.292;2023-11-21T08:45:42;1.90;;;1.00;;
22476;SDS011;65006;51.698;-0.292;2023-11-21T08:48:08;3.22;;;0.70;;
22476;SDS011;65006;51.698;-0.292;2023-11-21T08:50:37;3.05;;;0.80;;
22476;SDS011;65006;51.698;-0.292;2023-11-21T08:53:04;1.40;;;0.77;;
22476;SDS011;65006;51.698;-0.292;2023-11-21T08:55:31;1.63;;;0.75;;
22476;SDS011;65006;51.698;-0.292;2023-11-21T08:58:02;1.52;;;0.80;;
22476;SDS011;65006;51.698;-0.292;2023-11-21T09:00:30;1.25;;;0.73;;
22476;SDS011;65006;51.698;-0.292;2023-11-21T09:02:57;1.63;;;0.98;;
22476;SDS011;65006;51.698;-0.292;2023-11-21T09:07:58;1.80;;;0.82;;
22476;SDS011;65006;51.698;-0.292;2023-11-21T09:10:24;3.20;;;1.00;;
22476;SDS011;65006;51.698;-0.292;2023-11-21T09:12:50;3.53;;;1.00;;
22476;SDS011;65006;51.698;-0.292;2023-11-21T09:15:19;0.98;;;0.90;;
22476;SDS011;65006;51.698;-0.292;2023-11-21T09:17:45;2.75;;;1.20;;
22476;SDS011;65006;51.698;-0.292;2023-11-21T09:20:12;2.25;;;1.17;;
22476;SDS011;65006;51.698;-0.292;2023-11-21T09:22:39;1.52;;;1.05;;
22476;SDS011;65006;51.698;-0.292;2023-11-21T09:25:06;2.05;;;0.88;;
22476;SDS011;65006;51.698;-0.292;2023-11-21T09:27:34;1.25;;;1.13;;
22476;SDS011;65006;51.698;-0.292;2023-11-21T09:30:03;2.00;;;1.20;;
22476;SDS011;65006;51.698;-0.292;2023-11-21T09:32:32;4.68;;;1.95;;
22476;SDS011;65006;51.698;-0.292;2023-11-21T09:35:01;2.53;;;1.10;;
22476;SDS011;65006;51.698;-0.292;2023-11-21T09:37:28;3.33;;;1.52;;
22476;SDS011;65006;51.698;-0.292;2023-11-21T09:39:55;6.03;;;1.13;;
22476;SDS011;65006;51.698;-0.292;2023-11-21T09:42:56;1.58;;;1.13;;
22476;SDS011;65006;51.698;-0.292;2023-11-21T09:45:18;1.83;;;1.00;;
22476;SDS011;65006;51.698;-0.292;2023-11-21T09:47:49;2.25;;;1.27;;
22476;SDS011;65006;51.698;-0.292;2023-11-21T09:50:17;3.50;;;1.10;;
22476;SDS011;65006;51.698;-0.292;2023-11-21T09:53:32;1.23;;;1.10;;
22476;SDS011;65006;51.698;-0.292;2023-11-21T09:55:35;3.10;;;1.23;;
22476;SDS011;65006;51.698;-0.292;2023-11-21T09:58:04;1.70;;;0.98;;
22476;SDS011;65006;51.698;-0.292;2023-11-21T10:00:32;3.17;;;1.25;;
22476;SDS011;65006;51.698;-0.292;2023-11-21T10:02:59;1.42;;;0.75;;
22476;SDS011;65006;51.698;-0.292;2023-11-21T10:05:27;1.50;;;0.95;;
22476;SDS011;65006;51.698;-0.292;2023-11-21T10:07:53;1.10;;;0.90;;
22476;SDS011;65006;51.698;-0.292;2023-11-21T10:10:22;0.88;;;0.80;;
22476;SDS011;65006;51.698;-0.292;2023-11-21T10:12:50;1.27;;;1.10;;
22476;SDS011;65006;51.698;-0.292;2023-11-21T10:15:18;1.52;;;0.80;;
22476;SDS011;65006;51.698;-0.292;2023-11-21T10:17:51;1.45;;;0.98;;
22476;SDS011;65006;51.698;-0.292;2023-11-21T10:20:19;4.97;;;0.60;;
22476;SDS011;65006;51.698;-0.292;2023-11-21T10:22:47;2.30;;;0.80;;
22476;SDS011;65006;51.698;-0.292;2023-11-21T10:25:14;1.20;;;0.70;;
22476;SDS011;65006;51.698;-0.292;2023-11-21T10:27:40;1.05;;;0.82;;
22476;SDS011;65006;51.698;-0.292;2023-11-21T10:30:10;1.10;;;0.80;;
22476;SDS011;65006;51.698;-0.292;2023-11-21T10:32:39;2.97;;;0.65;;
22476;SDS011;65006;51.698;-0.292;2023-11-21T10:35:06;1.35;;;0.70;;
22476;SDS011;65006;51.698;-0.292;2023-11-21T10:37:35;4.10;;;0.57;;
22476;SDS011;65006;51.698;-0.292;2023-11-21T10:40:06;1.42;;;0.68;;
22476;SDS011;65006;51.698;-0.292;2023-11-21T10:42:33;0.80;;;0.68;;
22476;SDS011;65006;51.698;-0.292;2023-11-21T10:44:59;0.50;;;0.50;;
22476;SDS011;65006;51.698;-0.292;2023-11-21T10:52:20;2.27;;;0.70;;
22476;SDS011;65006;51.698;-0.292;2023-11-21T10:54:47;2.97;;;0.80;;
22476;SDS011;65006;51.698;-0.292;2023-11-21T10:59:40;3.42;;;0.70;;
22476;SDS011;65006;51.698;-0.292;2023-11-21T11:02:17;0.68;;;0.52;;
22476;SDS011;65006;51.698;-0.292;2023-11-21T11:04:47;1.95;;;0.50;;
22476;SDS011;65006;51.698;-0.292;2023-11-21T11:07:15;2.08;;;0.40;;
22476;SDS011;65006;51.698;-0.292;2023-11-21T11:09:42;1.20;;;0.52;;
22476;SDS011;65006;51.698;-0.292;2023-11-21T11:12:10;0.60;;;0.60;;
22476;SDS011;65006;51.698;-0.292;2023-11-21T11:14:36;0.82;;;0.47;;
22476;SDS011;65006;51.698;-0.292;2023-11-21T11:17:03;1.85;;;0.25;;
22476;SDS011;65006;51.698;-0.292;2023-11-21T11:19:30;0.30;;;0.30;;
22476;SDS011;65006;51.698;-0.292;2023-11-21T11:32:27;0.40;;;0.30;;
22476;SDS011;65006;51.698;-0.292;2023-11-21T11:35:07;0.30;;;0.30;;
22476;SDS011;65006;51.698;-0.292;2023-11-21T11:37:37;0.38;;;0.38;;
22476;SDS011;65006;51.698;-0.292;2023-11-21T11:40:06;0.73;;;0.50;;
22476;SDS011;65006;51.698;-0.292;2023-11-21T11:42:32;0.38;;;0.38;;
22476;SDS011;65006;51.698;-0.292;2023-11-21T11:44:59;0.65;;;0.40;;
22476;SDS011;65006;51.698;-0.292;2023-11-21T11:47:28;0.60;;;0.50;;
22476;SDS011;65006;51.698;-0.292;2023-11-21T11:50:05;0.63;;;0.60;;
22476;SDS011;65006;51.698;-0.292;2023-11-21T11:52:50;0.85;;;0.50;;
22476;SDS011;65006;51.698;-0.292;2023-11-21T11:55:19;0.80;;;0.60;;
22476;SDS011;65006;51.698;-0.292;2023-11-21T11:57:47;1.80;;;1.05;;
22476;SDS011;65006;51.698;-0.292;2023-11-21T12:00:15;1.38;;;0.90;;
22476;SDS011;65006;51.698;-0.292;2023-11-21T12:02:47;0.90;;;0.68;;
22476;SDS011;65006;51.698;-0.292;2023-11-21T12:05:21;1.70;;;0.90;;
22476;SDS011;65006;51.698;-0.292;2023-11-21T12:10:16;2.10;;;0.90;;
22476;SDS011;65006;51.698;-0.292;2023-11-21T12:12:45;1.10;;;0.70;;
22476;SDS011;65006;51.698;-0.292;2023-11-21T12:15:11;3.08;;;1.20;;
22476;SDS011;65006;51.698;-0.292;2023-11-21T12:20:04;0.75;;;0.38;;
22476;SDS011;65006;51.698;-0.292;2023-11-21T12:22:39;0.57;;;0.30;;
22476;SDS011;65006;51.698;-0.292;2023-11-21T12:25:07;0.38;;;0.28;;
22476;SDS011;65006;51.698;-0.292;2023-11-21T12:27:33;0.10;;;0.10;;
22476;SDS011;65006;51.698;-0.292;2023-11-21T12:32:26;0.47;;;0.10;;
22476;SDS011;65006;51.698;-0.292;2023-11-21T12:34:53;0.70;;;0.40;;
22476;SDS011;65006;51.698;-0.292;2023-11-21T12:37:20;0.20;;;0.20;;
22476;SDS011;65006;51.698;-0.292;2023-11-21T12:39:47;0.52;;;0.20;;
22476;SDS011;65006;51.698;-0.292;2023-11-21T12:42:13;0.60;;;0.20;;
22476;SDS011;65006;51.698;-0.292;2023-11-21T12:44:40;1.75;;;0.30;;
22476;SDS011;65006;51.698;-0.292;2023-11-21T12:47:09;0.85;;;0.35;;
22476;SDS011;65006;51.698;-0.292;2023-11-21T12:49:40;0.35;;;0.20;;
22476;SDS011;65006;51.698;-0.292;2023-11-21T12:52:16;2.92;;;0.30;;
22476;SDS011;65006;51.698;-0.292;2023-11-21T12:54:42;0.85;;;0.30;;
22476;SDS011;65006;51.698;-0.292;2023-11-21T12:57:09;2.78;;;0.30;;
22476;SDS011;65006;51.698;-0.292;2023-11-21T12:59:38;2.40;;;0.35;;
22476;SDS011;65006;51.698;-0.292;2023-11-21T13:02:05;0.20;;;0.20;;
22476;SDS011;65006;51.698;-0.292;2023-11-21T13:04:32;0.85;;;0.50;;
22476;SDS011;65006;51.698;-0.292;2023-11-21T13:07:05;0.98;;;0.28;;
22476;SDS011;65006;51.698;-0.292;2023-11-21T13:09:40;2.60;;;0.38;;
22476;SDS011;65006;51.698;-0.292;2023-11-21T13:12:06;0.38;;;0.30;;
22476;SDS011;65006;51.698;-0.292;2023-11-21T13:14:34;2.17;;;0.40;;
22476;SDS011;65006;51.698;-0.292;2023-11-21T13:17:02;5.28;;;0.45;;
22476;SDS011;65006;51.698;-0.292;2023-11-21T13:19:28;2.53;;;0.40;;
22476;SDS011;65006;51.698;-0.292;2023-11-21T13:21:54;4.55;;;0.75;;
22476;SDS011;65006;51.698;-0.292;2023-11-21T13:24:22;2.50;;;0.40;;
22476;SDS011;65006;51.698;-0.292;2023-11-21T13:26:53;3.35;;;0.47;;
22476;SDS011;65006;51.698;-0.292;2023-11-21T13:29:21;3.30;;;0.43;;
22476;SDS011;65006;51.698;-0.292;2023-11-21T13:31:48;3.03;;;0.70;;
22476;SDS011;65006;51.698;-0.292;2023-11-21T13:34:16;4.22;;;0.50;;
22476;SDS011;65006;51.698;-0.292;2023-11-21T13:36:44;5.13;;;0.73;;
22476;SDS011;65006;51.698;-0.292;2023-11-21T13:39:10;3.40;;;0.50;;
22476;SDS011;65006;51.698;-0.292;2023-11-21T13:41:40;4.60;;;0.75;;
22476;SDS011;65006;51.698;-0.292;2023-11-21T13:46:51;5.30;;;1.40;;
22476;SDS011;65006;51.698;-0.292;2023-11-21T13:49:18;8.77;;;0.95;;
22476;SDS011;65006;51.698;-0.292;2023-11-21T13:51:47;3.80;;;0.90;;
22476;SDS011;65006;51.698;-0.292;2023-11-21T13:54:17;5.00;;;0.65;;
22476;SDS011;65006;51.698;-0.292;2023-11-21T13:56:48;6.68;;;1.20;;
22476;SDS011;65006;51.698;-0.292;2023-11-21T13:59:16;3.35;;;0.90;;
22476;SDS011;65006;51.698;-0.292;2023-11-21T14:01:50;6.72;;;1.15;;
22476;SDS011;65006;51.698;-0.292;2023-11-21T14:04:29;5.82;;;1.02;;
22476;SDS011;65006;51.698;-0.292;2023-11-21T14:06:57;4.40;;;1.05;;
22476;SDS011;65006;51.698;-0.292;2023-11-21T14:09:26;4.90;;;0.90;;
22476;SDS011;65006;51.698;-0.292;2023-11-21T14:11:58;5.45;;;0.70;;
22476;SDS011;65006;51.698;-0.292;2023-11-21T14:14:25;16.00;;;1.42;;
22476;SDS011;65006;51.698;-0.292;2023-11-21T14:16:55;5.95;;;0.70;;
22476;SDS011;65006;51.698;-0.292;2023-11-21T14:19:23;9.82;;;1.30;;
22476;SDS011;65006;51.698;-0.292;2023-11-21T14:21:56;5.72;;;1.02;;
22476;SDS011;65006;51.698;-0.292;2023-11-21T14:24:22;9.32;;;1.08;;
22476;SDS011;65006;51.698;-0.292;2023-11-21T14:26:49;6.55;;;0.80;;
22476;SDS011;65006;51.698;-0.292;2023-11-21T14:29:16;4.65;;;0.75;;
22476;SDS011;65006;51.698;-0.292;2023-11-21T14:31:46;10.40;;;1.33;;
22476;SDS011;65006;51.698;-0.292;2023-11-21T14:34:13;2.30;;;0.90;;
22476;SDS011;65006;51.698;-0.292;2023-11-21T14:36:42;9.57;;;0.90;;
22476;SDS011;65006;51.698;-0.292;2023-11-21T14:39:09;7.20;;;1.55;;
22476;SDS011;65006;51.698;-0.292;2023-11-21T14:41:49;10.32;;;1.00;;
22476;SDS011;65006;51.698;-0.292;2023-11-21T14:44:15;5.38;;;1.10;;
22476;SDS011;65006;51.698;-0.292;2023-11-21T14:46:42;6.28;;;1.05;;
22476;SDS011;65006;51.698;-0.292;2023-11-21T14:49:12;9.70;;;1.45;;
22476;SDS011;65006;51.698;-0.292;2023-11-21T14:51:48;10.07;;;1.63;;
22476;SDS011;65006;51.698;-0.292;2023-11-21T14:54:21;6.53;;;1.10;;
22476;SDS011;65006;51.698;-0.292;2023-11-21T14:57:06;9.10;;;1.13;;
22476;SDS011;65006;51.698;-0.292;2023-11-21T14:59:36;8.20;;;1.48;;
22476;SDS011;65006;51.698;-0.292;2023-11-21T15:02:03;2.00;;;0.60;;
22476;SDS011;65006;51.698;-0.292;2023-11-21T15:04:46;7.65;;;1.40;;
22476;SDS011;65006;51.698;-0.292;2023-11-21T15:07:14;9.60;;;1.35;;
22476;SDS011;65006;51.698;-0.292;2023-11-21T15:09:40;10.18;;;1.20;;
22476;SDS011;65006;51.698;-0.292;2023-11-21T15:12:06;4.88;;;1.00;;
22476;SDS011;65006;51.698;-0.292;2023-11-21T15:14:49;6.25;;;1.13;;
22476;SDS011;65006;51.698;-0.292;2023-11-21T15:17:20;5.53;;;1.42;;
22476;SDS011;65006;51.698;-0.292;2023-11-21T15:19:51;5.07;;;1.17;;
22476;SDS011;65006;51.698;-0.292;2023-11-21T15:22:19;5.55;;;1.48;;
22476;SDS011;65006;51.698;-0.292;2023-11-21T15:24:45;8.25;;;1.30;;
22476;SDS011;65006;51.698;-0.292;2023-11-21T15:27:13;5.05;;;1.30;;